Time;durP1;ratioP1;P1;durP2;ratioP2;P2;SDS_P1;SDS_P2;PMS_P1;PMS_P2;Temp;Humidity;BMP_temperature;BMP_pressure;BME280_temperature;BME280_humidity;BME280_pressure;Samples;Min_cycle;Max_cycle;Signal;HPM_P1;HPM_P2
2023/06/20 00:03:53;;;;;;;123.80;110.80;;;;;;;18.88;100.00;100063.67;178053;1253;46063;-87
2023/06/20 00:07:56;;;;;;;64.20;58.00;;;;;;;18.82;100.00;100065.17;178463;1254;46079;-87
2023/06/20 00:12:00;;;;;;;45.20;40.20;;;;;;;18.70;100.00;100067.83;178082;1253;45866;-87
2023/06/20 00:16:03;;;;;;;20.20;14.80;;;;;;;18.68;100.00;100068.95;178207;1253;46011;-86
2023/06/20 00:20:10;;;;;;;22.20;15.60;;;;;;;18.71;100.00;100066.42;178249;1253;58324;-87
2023/06/20 00:24:14;;;;;;;18.10;16.10;;;;;;;18.72;100.00;100063.73;177991;1253;46056;-86
2023/06/20 00:28:17;;;;;;;17.30;14.30;;;;;;;18.57;100.00;100062.77;177776;1256;46569;-87
2023/06/20 00:32:21;;;;;;;15.80;14.10;;;;;;;18.46;100.00;100056.38;177942;1257;46051;-87
2023/06/20 00:36:27;;;;;;;18.70;15.10;;;;;;;18.45;100.00;100050.53;177881;1254;46000;-86
2023/06/20 00:40:30;;;;;;;26.40;13.40;;;;;;;18.49;100.00;100053.64;178322;1257;58268;-85
2023/06/20 00:44:33;;;;;;;17.70;12.90;;;;;;;18.41;100.00;100052.08;178000;1253;46073;-85
2023/06/20 00:48:37;;;;;;;16.10;13.50;;;;;;;18.34;100.00;100060.77;177974;1253;45951;-85
2023/06/20 00:52:40;;;;;;;17.90;14.50;;;;;;;18.33;100.00;100066.50;178092;1253;46125;-86
2023/06/20 00:56:44;;;;;;;22.20;14.30;;;;;;;18.33;100.00;100062.09;177954;1253;46009;-85
2023/06/20 01:00:48;;;;;;;19.00;14.70;;;;;;;18.34;100.00;100059.48;178114;1254;59548;-88
2023/06/20 01:04:51;;;;;;;29.20;14.70;;;;;;;18.29;100.00;100053.95;178288;1255;46089;-88
2023/06/20 01:09:20;;;;;;;19.30;14.10;;;;;;;18.24;100.00;100055.10;177724;1254;46095;-88
2023/06/20 01:13:36;;;;;;;21.20;13.70;;;;;;;18.21;100.00;100052.64;178094;1255;46003;-86
2023/06/20 01:17:50;;;;;;;17.00;14.30;;;;;;;18.19;100.00;100045.13;177750;1253;46064;-87
2023/06/20 01:22:03;;;;;;;20.20;12.40;;;;;;;18.17;100.00;100050.38;177612;1253;58389;-88
2023/06/20 01:26:20;;;;;;;17.80;13.10;;;;;;;18.07;100.00;100047.90;177607;1253;45961;-88
2023/06/20 01:30:30;;;;;;;15.40;13.80;;;;;;;17.97;100.00;100053.17;177772;1253;46215;-87
2023/06/20 01:34:40;;;;;;;18.70;14.30;;;;;;;17.86;100.00;100050.00;178536;1253;45919;-86
2023/06/20 01:38:46;;;;;;;20.40;12.90;;;;;;;17.83;100.00;100043.24;177658;1253;201519;-87
2023/06/20 01:42:52;;;;;;;26.70;15.90;;;;;;;17.85;100.00;100036.51;177597;1253;58083;-87
2023/06/20 01:46:58;;;;;;;22.60;12.40;;;;;;;17.72;100.00;100037.79;177966;1253;48443;-87
2023/06/20 01:51:01;;;;;;;;;;;;;;;17.53;100.00;100031.05;178072;1257;46301;-87
2023/06/20 01:55:07;;;;;;;22.60;14.80;;;;;;;17.39;100.00;100029.41;177884;1253;45925;-86
2023/06/20 01:59:12;;;;;;;18.80;13.60;;;;;;;17.25;100.00;100034.70;177860;1253;46318;-87
2023/06/20 02:03:19;;;;;;;24.90;15.00;;;;;;;17.23;100.00;100034.71;177782;1254;59570;-88
2023/06/20 02:07:23;;;;;;;43.60;16.60;;;;;;;17.27;100.00;100031.63;177708;1253;46168;-87
2023/06/20 02:11:27;;;;;;;27.20;13.20;;;;;;;17.34;100.00;100034.46;177871;1253;46000;-88
2023/06/20 02:15:34;;;;;;;19.60;15.60;;;;;;;17.33;100.00;100036.80;177828;1253;46006;-88
2023/06/20 02:19:38;;;;;;;26.40;15.70;;;;;;;17.31;100.00;100037.14;177782;1253;46097;-87
2023/06/20 02:23:43;;;;;;;20.80;12.80;;;;;;;17.27;100.00;100037.75;177373;1254;59663;-87
2023/06/20 02:27:48;;;;;;;22.20;13.40;;;;;;;17.18;100.00;100034.80;177747;1253;46167;-87
2023/06/20 02:31:53;;;;;;;24.60;16.10;;;;;;;17.06;100.00;100031.89;177666;1253;46160;-88
2023/06/20 02:35:57;;;;;;;21.70;13.10;;;;;;;17.05;100.00;100030.73;177760;1253;45061;-87
2023/06/20 02:40:00;;;;;;;27.90;15.90;;;;;;;17.00;100.00;100034.36;177847;1256;45307;-87
2023/06/20 02:44:04;;;;;;;22.70;14.90;;;;;;;17.08;100.00;100037.14;177436;1253;59667;-87
2023/06/20 02:48:42;;;;;;;22.30;13.60;;;;;;;17.02;100.00;100046.45;177389;1253;46125;-87
2023/06/20 02:52:53;;;;;;;23.90;13.20;;;;;;;16.89;100.00;100055.04;177796;1254;46552;-86
2023/06/20 02:57:00;;;;;;;27.40;16.20;;;;;;;16.94;100.00;100053.09;177566;1256;46064;-87
2023/06/20 03:01:04;;;;;;;20.90;12.40;;;;;;;17.02;100.00;100052.70;177642;1253;45991;-86
2023/06/20 03:05:13;;;;;;;24.30;12.90;;;;;;;17.09;100.00;100056.07;177625;1253;59673;-87
2023/06/20 03:09:17;;;;;;;20.30;13.90;;;;;;;17.08;100.00;100060.47;177605;1253;46210;-88
2023/06/20 03:13:21;;;;;;;149.30;34.10;;;;;;;17.08;100.00;100064.46;177712;1257;46024;-87
2023/06/20 03:17:25;;;;;;;59.40;19.80;;;;;;;17.06;100.00;100058.52;177990;1253;45982;-88
2023/06/20 03:21:29;;;;;;;29.60;16.40;;;;;;;17.10;100.00;100059.53;178046;1253;46101;-88
2023/06/20 03:25:32;;;;;;;33.50;14.50;;;;;;;17.18;100.00;100059.70;178583;1253;59628;-87
2023/06/20 03:29:35;;;;;;;16.90;13.40;;;;;;;17.32;100.00;100061.02;178621;1253;46125;-86
2023/06/20 03:33:38;;;;;;;39.00;14.70;;;;;;;17.44;100.00;100071.64;178014;1254;46208;-88
2023/06/20 03:37:41;;;;;;;23.80;10.30;;;;;;;17.53;100.00;100076.16;177793;1253;46118;-87
2023/06/20 03:41:45;;;;;;;19.00;14.90;;;;;;;17.70;100.00;100080.73;177884;1253;46029;-88
2023/06/20 03:45:48;;;;;;;25.40;17.50;;;;;;;17.96;100.00;100078.44;177998;1256;60782;-87
2023/06/20 03:49:51;;;;;;;21.40;15.80;;;;;;;18.16;100.00;100074.35;178024;1253;44421;-87
2023/06/20 03:53:55;;;;;;;19.30;14.50;;;;;;;18.27;100.00;100075.76;178079;1253;45984;-88
2023/06/20 03:57:58;;;;;;;20.70;14.70;;;;;;;18.30;100.00;100076.48;177846;1257;46217;-88
2023/06/20 04:02:01;;;;;;;21.40;13.80;;;;;;;18.40;100.00;100070.60;177890;1255;46116;-87
2023/06/20 04:06:06;;;;;;;23.80;14.90;;;;;;;18.50;100.00;100063.95;177689;1253;57166;-87
2023/06/20 04:10:13;;;;;;;22.20;15.60;;;;;;;18.62;100.00;100061.40;177815;1253;46630;-87
2023/06/20 04:14:16;;;;;;;18.40;14.50;;;;;;;18.77;100.00;100063.02;177884;1253;46455;-87
2023/06/20 04:18:19;;;;;;;22.00;14.80;;;;;;;18.99;100.00;100066.13;177969;1253;45997;-88
2023/06/20 04:22:26;;;;;;;22.10;15.40;;;;;;;19.36;100.00;100061.02;178524;1256;46022;-87
2023/06/20 04:26:30;;;;;;;19.70;15.40;;;;;;;19.78;100.00;100055.66;178168;1253;59707;-87
2023/06/20 04:30:33;;;;;;;24.10;15.70;;;;;;;20.48;100.00;100060.46;178124;1253;45988;-87
2023/06/20 04:34:36;;;;;;;18.70;14.30;;;;;;;21.28;98.31;100049.79;178286;1253;46098;-88
2023/06/20 04:38:41;;;;;;;28.30;14.80;;;;;;;21.93;92.68;100048.73;178441;1253;45990;-87
2023/06/20 04:42:47;;;;;;;25.50;15.80;;;;;;;22.42;91.20;100050.08;178594;1256;46121;-87
2023/06/20 04:46:50;;;;;;;23.10;12.50;;;;;;;22.74;90.09;100053.08;178762;1253;58293;-88
2023/06/20 04:50:55;;;;;;;22.00;14.70;;;;;;;22.77;88.58;100057.16;178497;1253;46102;-86
2023/06/20 04:55:01;;;;;;;26.60;15.50;;;;;;;22.74;88.68;100058.45;178583;1253;44825;-88
2023/06/20 04:59:05;;;;;;;22.60;14.50;;;;;;;22.68;88.54;100066.86;178667;1253;46082;-87
2023/06/20 05:03:08;;;;;;;25.10;16.00;;;;;;;22.92;89.62;100062.51;178701;1256;46339;-87
2023/06/20 05:07:12;;;;;;;20.20;15.20;;;;;;;23.22;88.48;100056.73;178871;1253;58772;-88
2023/06/20 05:11:15;;;;;;;22.70;16.20;;;;;;;23.42;88.75;100052.58;178433;1253;46238;-87
2023/06/20 05:15:25;;;;;;;21.30;14.70;;;;;;;23.78;88.64;100064.85;178699;1253;46175;-88
2023/06/20 05:19:28;;;;;;;20.90;16.20;;;;;;;24.04;87.27;100080.63;178746;1253;46056;-86
2023/06/20 05:23:32;;;;;;;18.20;13.30;;;;;;;24.16;87.20;100078.91;178730;1253;45971;-88
2023/06/20 05:27:35;;;;;;;21.70;13.30;;;;;;;24.37;86.48;100076.60;178919;1253;57913;-87
2023/06/20 05:31:41;;;;;;;16.90;11.50;;;;;;;24.82;86.08;100079.54;178807;1253;46110;-87
2023/06/20 05:35:46;;;;;;;18.60;12.10;;;;;;;25.48;83.65;100080.99;178683;1253;46079;-87
2023/06/20 05:39:49;;;;;;;23.50;13.30;;;;;;;26.23;80.15;100076.36;178842;1254;45967;-87
2023/06/20 05:43:53;;;;;;;17.90;12.30;;;;;;;26.90;79.57;100083.27;179033;1254;46107;-88
2023/06/20 05:47:58;;;;;;;15.30;10.70;;;;;;;27.59;76.58;100088.73;179204;1253;58360;-87
2023/06/20 05:52:02;;;;;;;20.70;12.20;;;;;;;28.29;71.85;100082.84;179447;1253;47345;-87
2023/06/20 05:56:06;;;;;;;15.30;11.60;;;;;;;28.72;69.44;100085.31;179631;1253;50565;-88
2023/06/20 06:00:12;;;;;;;17.40;9.40;;;;;;;29.44;65.12;100088.16;179390;1253;46114;-89
2023/06/20 06:04:16;;;;;;;19.80;10.40;;;;;;;29.97;65.78;100094.48;179551;1253;45664;-89
2023/06/20 06:08:20;;;;;;;14.00;9.70;;;;;;;30.15;64.36;100096.40;179586;1255;58552;-90
2023/06/20 06:12:24;;;;;;;14.10;9.60;;;;;;;30.27;65.25;100101.98;179690;1253;46421;-89
2023/06/20 06:16:27;;;;;;;11.30;8.80;;;;;;;30.63;63.69;100097.80;179582;1253;44760;-88
2023/06/20 06:20:31;;;;;;;19.10;9.40;;;;;;;30.56;62.22;100095.23;179758;1253;46089;-90
2023/06/20 06:24:35;;;;;;;15.80;11.00;;;;;;;30.07;63.45;100097.36;179730;1253;44551;-89
2023/06/20 06:28:40;;;;;;;12.20;10.50;;;;;;;30.01;65.19;100103.57;179789;1253;57919;-89
2023/06/20 06:32:47;;;;;;;13.10;10.60;;;;;;;30.21;64.80;100105.34;179867;1253;46105;-88
2023/06/20 06:36:52;;;;;;;11.60;10.10;;;;;;;30.34;64.47;100100.05;180017;1253;46143;-87
2023/06/20 06:40:56;;;;;;;12.10;9.30;;;;;;;30.28;64.86;100098.09;180023;1253;45919;-86
2023/06/20 06:45:03;;;;;;;13.50;9.00;;;;;;;30.43;64.56;100097.65;180101;1253;43520;-88
2023/06/20 06:49:10;;;;;;;11.10;8.10;;;;;;;30.62;64.79;100099.56;180179;1257;58429;-87
2023/06/20 06:53:14;;;;;;;11.70;8.60;;;;;;;30.92;65.02;100103.68;180177;1254;46194;-88
2023/06/20 06:57:18;;;;;;;9.60;8.20;;;;;;;31.16;63.54;100104.48;180198;1253;44770;-87
2023/06/20 07:01:22;;;;;;;10.30;8.90;;;;;;;31.43;62.08;100102.89;179970;1253;46105;-87
2023/06/20 07:05:26;;;;;;;15.10;9.60;;;;;;;31.65;60.75;100100.64;180251;1253;46080;-87
2023/06/20 07:09:31;;;;;;;11.90;8.90;;;;;;;31.92;59.87;100097.56;180029;1253;58444;-88
2023/06/20 07:13:35;;;;;;;11.80;9.50;;;;;;;32.05;59.63;100090.69;179964;1253;44075;-88
2023/06/20 07:17:38;;;;;;;14.20;9.20;;;;;;;32.07;59.50;100092.46;179771;1253;46105;-88
2023/06/20 07:21:42;;;;;;;10.80;9.10;;;;;;;32.10;60.10;100092.62;179831;1253;44647;-88
2023/06/20 07:25:46;;;;;;;17.40;14.20;;;;;;;32.17;59.56;100092.06;180192;1253;46007;-88
2023/06/20 07:29:51;;;;;;;15.20;8.80;;;;;;;32.23;58.98;100090.58;179895;1253;59326;-89
2023/06/20 07:33:55;;;;;;;10.90;9.80;;;;;;;32.13;60.69;100086.13;180278;1253;45977;-89
2023/06/20 07:37:59;;;;;;;15.20;8.80;;;;;;;32.28;60.50;100086.90;180112;1253;46111;-88
2023/06/20 07:42:03;;;;;;;10.20;8.70;;;;;;;32.51;60.26;100079.95;179989;1253;44650;-88
2023/06/20 07:46:07;;;;;;;12.40;9.00;;;;;;;32.64;59.80;100076.63;179801;1253;44022;-90
2023/06/20 07:50:12;;;;;;;9.20;8.30;;;;;;;32.69;59.28;100072.20;179999;1253;57526;-88
2023/06/20 07:54:15;;;;;;;15.50;9.20;;;;;;;32.69;60.26;100074.35;179985;1253;46118;-90
2023/06/20 07:58:20;;;;;;;11.10;8.60;;;;;;;32.81;58.68;100078.05;180028;1253;43746;-86
2023/06/20 08:02:24;;;;;;;10.50;8.70;;;;;;;32.73;58.44;100077.02;180108;1253;46128;-88
2023/06/20 08:06:28;;;;;;;9.00;8.10;;;;;;;32.82;57.81;100079.43;179801;1253;45974;-88
2023/06/20 08:10:32;;;;;;;14.70;8.40;;;;;;;32.99;56.76;100083.19;180105;1253;58549;-88
2023/06/20 08:14:37;;;;;;;18.80;9.40;;;;;;;33.23;57.93;100090.15;180439;1253;44679;-88
2023/06/20 08:18:40;;;;;;;;;;;;;;;33.37;57.62;100086.48;180301;1253;45967;-87
2023/06/20 08:22:44;;;;;;;8.30;7.40;;;;;;;33.46;57.82;100084.38;180038;1253;44570;-88
2023/06/20 08:26:48;;;;;;;10.70;9.60;;;;;;;33.57;55.38;100080.89;180339;1253;45974;-87
2023/06/20 08:30:53;;;;;;;10.30;9.20;;;;;;;33.60;55.65;100081.15;180017;1258;58071;-87
2023/06/20 08:34:57;;;;;;;8.90;8.10;;;;;;;33.70;53.59;100080.80;180173;1253;44505;-85
2023/06/20 08:39:01;;;;;;;12.20;8.90;;;;;;;33.76;54.17;100081.59;180148;1253;44610;-87
2023/06/20 08:43:06;;;;;;;8.50;7.70;;;;;;;33.64;53.19;100080.20;180032;1253;45421;-87
2023/06/20 08:47:10;;;;;;;8.60;7.70;;;;;;;33.55;53.02;100077.98;180001;1253;44838;-89
2023/06/20 08:51:16;;;;;;;9.00;8.00;;;;;;;33.40;53.92;100077.29;180027;1253;59548;-87
2023/06/20 08:55:21;;;;;;;11.40;8.80;;;;;;;33.37;53.52;100078.79;179939;1253;44595;-87
2023/06/20 08:59:25;;;;;;;9.00;8.10;;;;;;;33.27;52.77;100075.75;180023;1253;44666;-87
2023/06/20 09:03:29;;;;;;;13.60;9.10;;;;;;;33.27;53.64;100076.23;180332;1253;45350;-88
2023/06/20 09:07:37;;;;;;;10.70;8.10;;;;;;;33.29;52.39;100071.55;180076;1257;46106;-88
2023/06/20 09:11:57;;;;;;;11.40;8.10;;;;;;;33.24;52.57;100068.98;180215;1253;58897;-88
2023/06/20 09:16:12;;;;;;;9.40;7.20;;;;;;;33.24;53.34;100069.10;180289;1253;45942;-88
2023/06/20 09:20:16;;;;;;;11.50;8.10;;;;;;;33.32;51.97;100067.67;179911;1253;44439;-89
2023/06/20 09:24:20;;;;;;;8.70;7.70;;;;;;;33.42;51.18;100060.84;180545;1253;44474;-89
2023/06/20 09:28:32;;;;;;;11.30;7.90;;;;;;;33.59;49.97;100057.23;180173;1253;45962;-89
2023/06/20 09:32:40;;;;;;;9.90;8.90;;;;;;;33.64;50.75;100058.03;179981;1253;59174;-88
2023/06/20 09:36:45;;;;;;;12.80;9.10;;;;;;;33.66;52.63;100058.01;180000;1253;45923;-88
2023/06/20 09:40:52;;;;;;;8.40;7.60;;;;;;;33.56;52.41;100057.46;180301;1253;45988;-88
2023/06/20 09:44:57;;;;;;;10.20;9.10;;;;;;;33.52;51.19;100051.64;179919;1253;44711;-87
2023/06/20 09:49:04;;;;;;;8.40;6.90;;;;;;;33.44;51.15;100045.61;180649;1253;43969;-88
2023/06/20 09:53:29;;;;;;;8.70;7.90;;;;;;;33.44;52.00;100044.97;180140;1254;58143;-88
2023/06/20 09:57:47;;;;;;;8.80;7.90;;;;;;;33.52;51.85;100044.44;180449;1253;45985;-88
2023/06/20 10:01:53;;;;;;;9.20;7.80;;;;;;;33.52;50.97;100048.12;180331;1257;46057;-88
2023/06/20 10:06:03;;;;;;;19.00;15.70;;;;;;;33.66;52.88;100049.67;180411;1253;46009;-88
2023/06/20 10:10:08;;;;;;;12.60;9.00;;;;;;;33.96;53.20;100044.50;180583;1253;44095;-88
2023/06/20 10:14:13;;;;;;;11.30;10.20;;;;;;;33.98;51.51;100038.52;180700;1253;59342;-86
2023/06/20 10:18:30;;;;;;;10.60;7.80;;;;;;;33.86;50.46;100042.20;180334;1253;45992;-88
2023/06/20 10:22:42;;;;;;;18.10;11.00;;;;;;;33.89;53.90;100040.52;180402;1253;45997;-88
2023/06/20 10:26:52;;;;;;;9.40;7.80;;;;;;;33.92;49.73;100036.25;180242;1253;43804;-88
2023/06/20 10:31:00;;;;;;;9.60;8.40;;;;;;;33.97;49.26;100032.96;180652;1253;43815;-86
2023/06/20 10:35:09;;;;;;;8.70;7.20;;;;;;;34.00;46.83;100029.52;180376;1253;58330;-88
2023/06/20 10:39:17;;;;;;;6.70;6.00;;;;;;;33.97;47.33;100032.19;180457;1253;45973;-88
2023/06/20 10:43:22;;;;;;;8.20;7.50;;;;;;;33.91;48.07;100028.69;180212;1253;44675;-87
2023/06/20 10:47:27;;;;;;;7.60;6.80;;;;;;;33.86;48.54;100023.55;180201;1253;45288;-87
2023/06/20 10:51:49;;;;;;;8.80;7.60;;;;;;;33.87;48.77;100023.64;180203;1253;46487;-87
2023/06/20 10:55:53;;;;;;;7.60;6.20;;;;;;;33.94;50.85;100022.16;180388;1253;59855;-88
2023/06/20 11:00:13;;;;;;;6.20;5.70;;;;;;;34.12;51.48;100018.60;180162;1254;44271;-89
2023/06/20 11:04:20;;;;;;;7.30;6.60;;;;;;;34.27;50.50;100014.58;180335;1253;45907;-88
2023/06/20 11:08:25;;;;;;;6.80;5.60;;;;;;;34.29;49.82;100014.73;180290;1253;44815;-88
2023/06/20 11:12:29;;;;;;;6.70;6.00;;;;;;;34.27;47.06;100011.00;180534;1253;43560;-88
2023/06/20 11:16:34;;;;;;;6.30;5.70;;;;;;;34.10;48.74;100009.51;180876;1253;58022;-89
2023/06/20 11:20:40;;;;;;;7.80;7.10;;;;;;;33.97;47.36;100008.41;180559;1253;44762;-88
2023/06/20 11:24:44;;;;;;;9.30;6.60;;;;;;;33.94;48.63;100006.77;180609;1253;47971;-88
2023/06/20 11:29:02;;;;;;;8.30;6.00;;;;;;;33.83;48.39;100009.79;180194;1258;44830;-88
2023/06/20 11:33:18;;;;;;;6.80;6.00;;;;;;;33.74;47.59;100008.58;180177;1253;45972;-88
2023/06/20 11:37:23;;;;;;;5.60;5.10;;;;;;;33.67;47.01;100004.56;180480;1253;59094;-88
2023/06/20 11:41:31;;;;;;;38.30;13.50;;;;;;;33.54;48.73;100001.75;180230;1253;44723;-87
2023/06/20 11:45:36;;;;;;;7.40;6.70;;;;;;;33.41;50.87;100004.66;180781;1253;46114;-87
2023/06/20 11:49:40;;;;;;;;;;;;;;;33.42;51.79;100004.08;180543;1253;44727;-88
2023/06/20 11:53:44;;;;;;;23.70;7.30;;;;;;;33.41;53.53;100002.20;180060;1257;45668;-87
2023/06/20 11:57:48;;;;;;;6.90;6.20;;;;;;;33.41;54.07;99995.47;180642;1253;60534;-88
2023/06/20 12:01:52;;;;;;;10.50;7.80;;;;;;;33.40;53.43;99992.88;180064;1258;46220;-87
2023/06/20 12:05:57;;;;;;;;;;;;;;;33.50;55.95;99988.54;180266;1257;46044;-87
2023/06/20 12:10:08;;;;;;;9.20;7.00;;;;;;;33.54;56.66;99987.67;180351;1254;45750;-88
2023/06/20 12:14:14;;;;;;;8.30;7.40;;;;;;;33.61;56.04;99987.95;180307;1253;45984;-88
2023/06/20 12:18:19;;;;;;;8.60;7.10;;;;;;;33.63;56.23;99988.45;180102;1254;58573;-88
2023/06/20 12:22:22;;;;;;;9.50;7.70;;;;;;;33.53;55.40;99984.60;180371;1254;44530;-88
2023/06/20 12:26:26;;;;;;;10.60;8.70;;;;;;;33.54;55.05;99979.58;180527;1254;45992;-88
2023/06/20 12:30:31;;;;;;;8.20;7.30;;;;;;;33.57;55.41;99973.48;180115;1256;46168;-88
2023/06/20 12:34:34;;;;;;;7.80;6.90;;;;;;;33.49;56.16;99971.73;180265;1254;45978;-88
2023/06/20 12:38:38;;;;;;;8.50;7.60;;;;;;;33.39;55.87;99972.60;180312;1254;60788;-89
2023/06/20 12:42:43;;;;;;;8.40;7.60;;;;;;;33.30;56.07;99977.58;180393;1253;44552;-89
2023/06/20 12:46:46;;;;;;;9.30;8.40;;;;;;;33.31;56.88;99979.83;180227;1254;44730;-88
2023/06/20 12:50:50;;;;;;;11.40;8.70;;;;;;;33.32;56.35;99985.55;180184;1253;44783;-88
2023/06/20 12:54:57;;;;;;;9.10;7.30;;;;;;;33.42;56.23;99982.18;180278;1258;44849;-89
2023/06/20 12:59:04;;;;;;;9.70;7.10;;;;;;;33.62;57.36;99976.52;180106;1254;58155;-89
2023/06/20 13:03:09;;;;;;;7.50;5.70;;;;;;;33.73;53.74;99981.06;180291;1256;46033;-88
2023/06/20 13:17:57;;;;;;;5.70;5.00;;;;;;;33.94;48.04;99972.67;180841;1255;44972;-61
2023/06/20 13:22:01;;;;;;;8.90;5.50;;;;;;;34.06;47.93;99974.95;180896;1256;58756;-62
2023/06/20 13:26:08;;;;;;;9.00;5.50;;;;;;;34.15;48.42;99976.00;181031;1256;45989;-61
2023/06/20 13:30:15;;;;;;;5.40;4.90;;;;;;;34.36;48.45;99974.57;180861;1255;43608;-60
2023/06/20 13:34:18;;;;;;;9.20;5.50;;;;;;;34.49;45.75;99970.67;181108;1255;43590;-60
2023/06/20 13:38:38;;;;;;;8.30;5.40;;;;;;;34.60;46.13;99967.20;180861;1256;296204;-61
2023/06/20 13:42:48;;;;;;;8.40;5.80;;;;;;;34.72;46.37;99963.34;181026;1256;58416;-60
2023/06/20 13:46:56;;;;;;;6.10;5.00;;;;;;;34.87;46.03;99967.88;181106;1255;45840;-61
2023/06/20 13:52:03;;;;;;;26.10;8.70;;;;;;;34.85;48.03;99964.66;181020;1255;43495;-61
2023/06/20 13:56:06;;;;;;;6.00;4.90;;;;;;;34.61;49.01;99964.09;181017;1256;43656;-61
2023/06/20 14:00:20;;;;;;;6.20;4.60;;;;;;;34.40;47.37;99962.77;181147;1256;45794;-61
2023/06/20 14:04:23;;;;;;;6.50;5.80;;;;;;;34.24;47.22;99963.52;181087;1255;59276;-61
2023/06/20 14:08:41;;;;;;;7.50;5.90;;;;;;;34.13;49.96;99960.32;181093;1256;44125;-63
2023/06/20 14:12:44;;;;;;;6.00;5.20;;;;;;;34.00;50.45;99956.96;181293;1256;43632;-62
2023/06/20 14:17:02;;;;;;;6.70;5.30;;;;;;;33.90;51.75;99955.23;181329;1256;43722;-61
2023/06/20 14:21:05;;;;;;;7.30;6.00;;;;;;;33.72;54.08;99958.14;180911;1255;43565;-61
2023/06/20 14:25:08;;;;;;;7.10;6.40;;;;;;;33.44;53.99;99958.35;181041;1256;58682;-61
2023/06/20 14:29:11;;;;;;;6.40;5.50;;;;;;;32.97;55.46;99956.05;180904;1255;45029;-59
2023/06/20 14:33:14;;;;;;;6.30;5.70;;;;;;;32.77;56.56;99957.80;180838;1255;46048;-61
2023/06/20 14:37:23;;;;;;;14.10;7.80;;;;;;;32.64;56.36;99957.42;180858;1255;45143;-62
2023/06/20 14:41:28;;;;;;;6.80;6.10;;;;;;;32.55;54.78;99960.04;180672;1256;45867;-62
2023/06/20 14:45:37;;;;;;;6.80;6.10;;;;;;;32.56;55.21;99964.89;180746;1255;59005;-61
2023/06/20 14:49:43;;;;;;;5.20;4.70;;;;;;;32.57;55.16;99960.91;180813;1256;43671;-63
2023/06/20 14:53:51;;;;;;;9.50;6.70;;;;;;;32.59;56.18;99958.75;180658;1256;50974;-62
2023/06/20 14:57:55;;;;;;;5.70;5.20;;;;;;;32.61;55.27;99956.31;180709;1256;43718;-62
2023/06/20 15:01:58;;;;;;;7.70;6.00;;;;;;;32.60;56.90;99957.05;180674;1257;43607;-62
2023/06/20 15:06:04;;;;;;;12.10;5.60;;;;;;;32.52;56.79;99955.65;180568;1256;58381;-60
2023/06/20 15:10:09;;;;;;;6.80;5.40;;;;;;;32.42;58.63;99954.48;180615;1256;43936;-61
2023/06/20 15:14:12;;;;;;;;;;;;;;;32.29;58.92;99951.69;180732;1256;44973;-62
2023/06/20 15:18:15;;;;;;;8.00;6.50;;;;;;;32.20;58.92;99946.54;180630;1256;45929;-63
2023/06/20 15:22:18;;;;;;;6.50;5.80;;;;;;;32.07;59.68;99941.02;180870;1255;45965;-62
2023/06/20 15:26:22;;;;;;;7.80;6.20;;;;;;;31.88;59.09;99937.90;181080;1254;58508;-64
2023/06/20 15:30:27;;;;;;;6.90;5.60;;;;;;;31.73;63.48;99939.66;181106;1255;43580;-61
2023/06/20 15:34:36;;;;;;;7.10;6.10;;;;;;;31.57;63.70;99934.77;180805;1256;45952;-60
2023/06/20 15:39:00;;;;;;;6.80;6.20;;;;;;;31.40;64.08;99925.87;180753;1256;45812;-60
2023/06/20 15:43:04;;;;;;;6.10;5.50;;;;;;;31.18;64.33;99919.07;180728;1256;44602;-60
2023/06/20 15:47:07;;;;;;;9.50;6.50;;;;;;;30.97;65.79;99919.58;180789;1256;58539;-60
2023/06/20 15:51:11;;;;;;;9.70;7.00;;;;;;;30.75;68.17;99916.56;180585;1256;44468;-60
2023/06/20 15:55:14;;;;;;;12.00;7.10;;;;;;;30.57;70.02;99910.98;180720;1256;43621;-59
2023/06/20 15:59:18;;;;;;;7.40;6.70;;;;;;;30.41;70.95;99914.44;180588;1255;44345;-62
2023/06/20 16:03:21;;;;;;;7.90;6.10;;;;;;;30.31;71.26;99915.88;180781;1259;44822;-61
2023/06/20 16:07:24;;;;;;;7.90;7.00;;;;;;;30.26;71.55;99919.67;180734;1256;58432;-60
2023/06/20 16:11:29;;;;;;;10.60;7.10;;;;;;;30.19;74.70;99924.19;180861;1255;43582;-63
2023/06/20 16:15:34;;;;;;;7.80;7.00;;;;;;;30.15;75.05;99922.37;180837;1255;45883;-62
2023/06/20 16:24:35;;;;;;;10.20;9.20;;;;;;;30.10;70.88;99914.61;180655;1256;45341;-60
2023/06/20 16:28:39;;;;;;;10.80;8.10;;;;;;;30.11;69.74;99914.88;180668;1259;59512;-61
2023/06/20 16:32:48;;;;;;;9.90;8.50;;;;;;;30.10;70.89;99913.89;180806;1257;43769;-58
2023/06/20 16:36:52;;;;;;;9.40;8.50;;;;;;;30.13;71.03;99918.52;180822;1259;43694;-58
2023/06/20 16:40:56;;;;;;;8.40;7.30;;;;;;;30.19;72.55;99921.52;180903;1257;43556;-60
2023/06/20 16:45:00;;;;;;;8.50;7.70;;;;;;;30.23;73.26;99919.56;181369;1256;43802;-61
2023/06/20 16:49:11;;;;;;;10.80;7.70;;;;;;;30.23;72.38;99912.25;181144;1257;58211;-61
2023/06/20 16:53:15;;;;;;;7.70;6.90;;;;;;;30.21;72.77;99910.48;180923;1256;43581;-58
2023/06/20 16:57:18;;;;;;;7.90;7.10;;;;;;;30.20;73.20;99904.06;180731;1257;44889;-58
2023/06/20 17:01:22;;;;;;;8.30;7.20;;;;;;;30.13;74.33;99903.59;180777;1255;43749;-58
2023/06/20 17:05:26;;;;;;;8.50;7.30;;;;;;;30.05;74.48;99905.08;180803;1256;44799;-58
2023/06/20 17:09:29;;;;;;;8.40;7.50;;;;;;;30.02;73.73;99903.73;180625;1260;58962;-59
2023/06/20 17:13:33;;;;;;;8.90;7.40;;;;;;;29.98;73.35;99906.17;180853;1256;44337;-61
2023/06/20 17:18:06;;;;;;;10.30;9.20;;;;;;;29.90;79.56;99910.23;180688;1256;45939;-63
2023/06/20 17:22:10;;;;;;;9.10;8.30;;;;;;;29.77;76.59;99911.52;180847;1257;43795;-59
2023/06/20 17:26:13;;;;;;;9.30;6.90;;;;;;;29.68;75.61;99908.21;181209;1256;43600;-60
2023/06/20 17:30:34;;;;;;;9.20;8.30;;;;;;;29.51;74.19;99905.79;181083;1256;59502;-62
2023/06/20 17:34:38;;;;;;;10.40;7.70;;;;;;;29.37;73.65;99904.06;180817;1255;43626;-59
2023/06/20 17:38:41;;;;;;;8.40;7.60;;;;;;;29.22;73.21;99899.16;180773;1259;45078;-59
2023/06/20 17:42:44;;;;;;;10.80;7.20;;;;;;;29.10;73.64;99898.11;180692;1256;43857;-59
2023/06/20 17:46:47;;;;;;;9.80;8.70;;;;;;;29.01;73.01;99897.98;180707;1256;43802;-60
2023/06/20 17:50:58;;;;;;;10.70;9.50;;;;;;;28.93;71.47;99899.88;180775;1254;58302;-62
2023/06/20 17:55:29;;;;;;;8.20;7.30;;;;;;;28.82;70.78;99902.55;180761;1257;45993;-62
2023/06/20 17:59:36;;;;;;;7.70;6.70;;;;;;;28.72;71.35;99902.13;180754;1257;46145;-60
2023/06/20 18:03:39;;;;;;;7.70;6.90;;;;;;;28.61;71.80;99902.07;180821;1256;43740;-67
2023/06/20 18:07:45;;;;;;;9.20;7.00;;;;;;;28.54;72.55;99905.48;180649;1256;46028;-61
2023/06/20 18:11:51;;;;;;;8.30;7.40;;;;;;;28.46;73.88;99908.67;180665;1257;59491;-62
2023/06/20 18:15:56;;;;;;;10.00;8.90;;;;;;;28.38;74.87;99905.98;180768;1256;43517;-61
2023/06/20 18:20:31;;;;;;;9.90;7.60;;;;;;;28.29;76.27;99905.77;180700;1256;43792;-63
2023/06/20 18:24:34;;;;;;;9.50;8.40;;;;;;;28.22;77.15;99905.46;180764;1255;46116;-58
2023/06/20 18:29:05;;;;;;;8.80;7.70;;;;;;;28.12;78.68;99902.26;180674;1257;43735;-58
2023/06/20 18:33:19;;;;;;;9.80;7.90;;;;;;;28.01;79.59;99903.77;181063;1255;58791;-61
2023/06/20 18:38:03;;;;;;;8.80;7.80;;;;;;;27.98;80.26;99900.30;180563;1256;84431;-59
2023/06/20 18:42:11;;;;;;;9.80;8.80;;;;;;;27.96;80.64;99899.45;180886;1259;83260;-65
2023/06/20 18:46:18;;;;;;;11.00;9.60;;;;;;;27.91;79.06;99904.41;180718;1260;44931;-60
2023/06/20 18:50:23;;;;;;;15.70;10.60;;;;;;;27.82;79.72;99900.06;180467;1260;46158;-60
2023/06/20 18:54:28;;;;;;;13.50;10.50;;;;;;;27.73;78.98;99902.33;180250;1260;58433;-64
2023/06/20 18:58:31;;;;;;;12.20;10.90;;;;;;;27.62;78.56;99901.66;180350;1260;43686;-60
2023/06/20 19:02:36;;;;;;;12.60;9.90;;;;;;;27.49;78.81;99903.20;180324;1261;46091;-60